sensor_id;sensor_type;location;lat;lon;timestamp;temperature;humidity
14614;DHT22;7393;51.446;6.800;2023-03-03T00:01:04;3.00;1.00
14614;DHT22;7393;51.446;6.800;2023-03-03T00:03:31;3.00;1.00
14614;DHT22;7393;51.446;6.800;2023-03-03T00:06:01;2.90;99.90
14614;DHT22;7393;51.446;6.800;2023-03-03T00:08:29;2.90;1.00
14614;DHT22;7393;51.446;6.800;2023-03-03T00:10:56;3.00;1.00
14614;DHT22;7393;51.446;6.800;2023-03-03T00:13:26;2.90;99.90
14614;DHT22;7393;51.446;6.800;2023-03-03T00:15:58;2.90;1.00
14614;DHT22;7393;51.446;6.800;2023-03-03T00:18:36;2.90;1.00
14614;DHT22;7393;51.446;6.800;2023-03-03T00:21:28;3.00;1.00
14614;DHT22;7393;51.446;6.800;2023-03-03T00:24:17;3.00;1.00
14614;DHT22;7393;51.446;6.800;2023-03-03T00:26:47;3.00;1.00
14614;DHT22;7393;51.446;6.800;2023-03-03T00:29:32;2.90;1.00
14614;DHT22;7393;51.446;6.800;2023-03-03T00:32:25;2.90;52.90
14614;DHT22;7393;51.446;6.800;2023-03-03T00:34:53;2.90;1.00
14614;DHT22;7393;51.446;6.800;2023-03-03T00:37:30;2.80;99.90
14614;DHT22;7393;51.446;6.800;2023-03-03T00:42:57;2.80;99.90
14614;DHT22;7393;51.446;6.800;2023-03-03T00:45:30;2.80;99.90
14614;DHT22;7393;51.446;6.800;2023-03-03T00:48:23;2.80;1.00
14614;DHT22;7393;51.446;6.800;2023-03-03T00:50:51;2.80;99.90
14614;DHT22;7393;51.446;6.800;2023-03-03T00:53:21;2.80;99.90
14614;DHT22;7393;51.446;6.800;2023-03-03T00:55:50;2.80;1.00
14614;DHT22;7393;51.446;6.800;2023-03-03T00:58:17;2.80;1.00
14614;DHT22;7393;51.446;6.800;2023-03-03T01:00:46;2.80;1.00
14614;DHT22;7393;51.446;6.800;2023-03-03T01:03:16;2.70;4.30
14614;DHT22;7393;51.446;6.800;2023-03-03T01:05:43;2.70;99.90
14614;DHT22;7393;51.446;6.800;2023-03-03T01:08:10;2.70;99.90
14614;DHT22;7393;51.446;6.800;2023-03-03T01:10:42;2.70;1.00
14614;DHT22;7393;51.446;6.800;2023-03-03T01:13:09;2.70;99.90
14614;DHT22;7393;51.446;6.800;2023-03-03T01:15:37;2.70;99.90
14614;DHT22;7393;51.446;6.800;2023-03-03T01:18:05;2.70;99.90
14614;DHT22;7393;51.446;6.800;2023-03-03T01:20:32;2.70;99.90
14614;DHT22;7393;51.446;6.800;2023-03-03T01:22:59;2.80;53.50
14614;DHT22;7393;51.446;6.800;2023-03-03T01:25:25;2.70;1.00
14614;DHT22;7393;51.446;6.800;2023-03-03T01:27:54;2.70;1.00
14614;DHT22;7393;51.446;6.800;2023-03-03T01:30:21;2.70;1.00
14614;DHT22;7393;51.446;6.800;2023-03-03T01:32:48;2.80;99.90
14614;DHT22;7393;51.446;6.800;2023-03-03T01:35:15;2.80;99.90
14614;DHT22;7393;51.446;6.800;2023-03-03T01:37:42;2.70;1.00
14614;DHT22;7393;51.446;6.800;2023-03-03T01:40:14;2.70;1.00
14614;DHT22;7393;51.446;6.800;2023-03-03T01:42:41;2.70;1.00
14614;DHT22;7393;51.446;6.800;2023-03-03T01:45:20;2.60;1.00
14614;DHT22;7393;51.446;6.800;2023-03-03T01:47:58;2.60;1.00
14614;DHT22;7393;51.446;6.800;2023-03-03T01:50:44;2.60;40.80
14614;DHT22;7393;51.446;6.800;2023-03-03T01:53:16;2.70;1.00
14614;DHT22;7393;51.446;6.800;2023-03-03T01:55:44;2.60;1.00
14614;DHT22;7393;51.446;6.800;2023-03-03T01:58:15;2.60;1.00
14614;DHT22;7393;51.446;6.800;2023-03-03T02:00:48;2.60;99.90
14614;DHT22;7393;51.446;6.800;2023-03-03T02:03:17;2.60;99.90
14614;DHT22;7393;51.446;6.800;2023-03-03T02:05:46;2.60;99.90
14614;DHT22;7393;51.446;6.800;2023-03-03T02:08:15;2.60;1.00
14614;DHT22;7393;51.446;6.800;2023-03-03T02:10:45;2.60;99.90
14614;DHT22;7393;51.446;6.800;2023-03-03T02:13:12;2.60;99.90
14614;DHT22;7393;51.446;6.800;2023-03-03T02:15:38;2.50;99.90
14614;DHT22;7393;51.446;6.800;2023-03-03T02:18:10;2.50;1.00
14614;DHT22;7393;51.446;6.800;2023-03-03T02:20:45;2.50;99.90
14614;DHT22;7393;51.446;6.800;2023-03-03T02:23:18;2.50;99.90
14614;DHT22;7393;51.446;6.800;2023-03-03T02:25:52;2.60;99.90
14614;DHT22;7393;51.446;6.800;2023-03-03T02:28:22;2.60;1.00
14614;DHT22;7393;51.446;6.800;2023-03-03T02:30:53;2.60;99.90
14614;DHT22;7393;51.446;6.800;2023-03-03T02:33:20;2.60;99.90
14614;DHT22;7393;51.446;6.800;2023-03-03T02:35:47;2.60;1.00
14614;DHT22;7393;51.446;6.800;2023-03-03T02:38:19;2.50;16.90
14614;DHT22;7393;51.446;6.800;2023-03-03T02:40:54;2.40;1.00
14614;DHT22;7393;51.446;6.800;2023-03-03T02:43:27;2.40;1.00
14614;DHT22;7393;51.446;6.800;2023-03-03T02:45:55;2.40;1.00
14614;DHT22;7393;51.446;6.800;2023-03-03T02:48:22;2.40;1.00
14614;DHT22;7393;51.446;6.800;2023-03-03T02:50:48;2.30;1.00
14614;DHT22;7393;51.446;6.800;2023-03-03T02:53:15;2.30;99.90
14614;DHT22;7393;51.446;6.800;2023-03-03T02:55:42;2.30;1.00
14614;DHT22;7393;51.446;6.800;2023-03-03T02:58:09;2.20;1.00
14614;DHT22;7393;51.446;6.800;2023-03-03T03:00:37;2.20;1.00
14614;DHT22;7393;51.446;6.800;2023-03-03T03:03:04;2.20;1.00
14614;DHT22;7393;51.446;6.800;2023-03-03T03:05:30;2.20;1.00
14614;DHT22;7393;51.446;6.800;2023-03-03T03:07:57;2.20;99.90
14614;DHT22;7393;51.446;6.800;2023-03-03T03:10:24;2.20;1.00
14614;DHT22;7393;51.446;6.800;2023-03-03T03:12:51;2.20;52.70
14614;DHT22;7393;51.446;6.800;2023-03-03T03:15:18;2.10;99.90
14614;DHT22;7393;51.446;6.800;2023-03-03T03:17:46;2.10;1.00
14614;DHT22;7393;51.446;6.800;2023-03-03T03:20:12;2.10;1.00
14614;DHT22;7393;51.446;6.800;2023-03-03T03:22:39;2.10;99.90
14614;DHT22;7393;51.446;6.800;2023-03-03T03:25:07;2.00;1.00
14614;DHT22;7393;51.446;6.800;2023-03-03T03:27:34;2.00;1.00
14614;DHT22;7393;51.446;6.800;2023-03-03T03:30:01;2.00;1.00
14614;DHT22;7393;51.446;6.800;2023-03-03T03:32:28;2.00;1.00
14614;DHT22;7393;51.446;6.800;2023-03-03T03:34:56;1.90;99.90
14614;DHT22;7393;51.446;6.800;2023-03-03T03:37:22;1.90;1.00
14614;DHT22;7393;51.446;6.800;2023-03-03T03:39:49;2.00;1.00
14614;DHT22;7393;51.446;6.800;2023-03-03T03:42:16;2.00;99.90
14614;DHT22;7393;51.446;6.800;2023-03-03T03:44:42;2.00;1.00
14614;DHT22;7393;51.446;6.800;2023-03-03T03:47:09;2.00;99.90
14614;DHT22;7393;51.446;6.800;2023-03-03T03:49:36;2.00;1.00
14614;DHT22;7393;51.446;6.800;2023-03-03T03:52:05;2.00;1.00
14614;DHT22;7393;51.446;6.800;2023-03-03T03:54:32;2.00;59.90
14614;DHT22;7393;51.446;6.800;2023-03-03T03:56:59;2.00;83.20
14614;DHT22;7393;51.446;6.800;2023-03-03T03:59:26;2.10;19.30
14614;DHT22;7393;51.446;6.800;2023-03-03T04:01:52;2.10;1.00
14614;DHT22;7393;51.446;6.800;2023-03-03T04:04:19;2.00;1.00
14614;DHT22;7393;51.446;6.800;2023-03-03T04:06:46;2.00;1.00
14614;DHT22;7393;51.446;6.800;2023-03-03T04:09:15;2.00;1.00
14614;DHT22;7393;51.446;6.800;2023-03-03T04:11:41;2.10;1.00
14614;DHT22;7393;51.446;6.800;2023-03-03T04:14:08;2.10;1.00
14614;DHT22;7393;51.446;6.800;2023-03-03T04:16:35;2.10;1.00
14614;DHT22;7393;51.446;6.800;2023-03-03T04:19:02;2.20;1.00
14614;DHT22;7393;51.446;6.800;2023-03-03T04:21:29;2.20;99.90
14614;DHT22;7393;51.446;6.800;2023-03-03T04:23:55;2.20;1.00
14614;DHT22;7393;51.446;6.800;2023-03-03T04:26:24;2.20;1.00
14614;DHT22;7393;51.446;6.800;2023-03-03T04:28:51;2.20;99.90
14614;DHT22;7393;51.446;6.800;2023-03-03T04:31:18;2.20;1.10
14614;DHT22;7393;51.446;6.800;2023-03-03T04:33:45;2.20;99.90
14614;DHT22;7393;51.446;6.800;2023-03-03T04:36:12;2.20;1.00
14614;DHT22;7393;51.446;6.800;2023-03-03T04:38:38;2.10;99.90
14614;DHT22;7393;51.446;6.800;2023-03-03T04:41:05;2.10;1.00
14614;DHT22;7393;51.446;6.800;2023-03-03T04:43:33;2.10;99.90
14614;DHT22;7393;51.446;6.800;2023-03-03T04:46:00;2.10;99.90
14614;DHT22;7393;51.446;6.800;2023-03-03T04:48:27;2.00;99.90
14614;DHT22;7393;51.446;6.800;2023-03-03T04:50:54;2.00;1.00
14614;DHT22;7393;51.446;6.800;2023-03-03T04:53:20;2.00;1.00
14614;DHT22;7393;51.446;6.800;2023-03-03T04:55:49;2.00;1.00
14614;DHT22;7393;51.446;6.800;2023-03-03T04:58:17;2.00;1.00
14614;DHT22;7393;51.446;6.800;2023-03-03T05:00:45;2.10;1.00
14614;DHT22;7393;51.446;6.800;2023-03-03T05:03:12;2.10;1.00
14614;DHT22;7393;51.446;6.800;2023-03-03T05:05:39;2.10;99.90
14614;DHT22;7393;51.446;6.800;2023-03-03T05:08:06;2.10;99.90
14614;DHT22;7393;51.446;6.800;2023-03-03T05:10:33;2.10;1.00
14614;DHT22;7393;51.446;6.800;2023-03-03T05:13:00;2.00;1.00
14614;DHT22;7393;51.446;6.800;2023-03-03T05:15:27;2.00;1.00
14614;DHT22;7393;51.446;6.800;2023-03-03T05:17:55;2.00;1.00
14614;DHT22;7393;51.446;6.800;2023-03-03T05:20:22;2.00;1.00
14614;DHT22;7393;51.446;6.800;2023-03-03T05:22:49;2.00;99.90
14614;DHT22;7393;51.446;6.800;2023-03-03T05:25:16;2.00;99.90
14614;DHT22;7393;51.446;6.800;2023-03-03T05:27:43;2.00;99.90
14614;DHT22;7393;51.446;6.800;2023-03-03T05:30:11;2.00;99.90
14614;DHT22;7393;51.446;6.800;2023-03-03T05:32:38;2.00;99.90
14614;DHT22;7393;51.446;6.800;2023-03-03T05:35:07;2.00;1.00
14614;DHT22;7393;51.446;6.800;2023-03-03T05:37:33;2.00;1.00
14614;DHT22;7393;51.446;6.800;2023-03-03T05:40:00;1.90;99.90
14614;DHT22;7393;51.446;6.800;2023-03-03T05:42:28;1.90;1.00
14614;DHT22;7393;51.446;6.800;2023-03-03T05:44:55;1.90;1.00
14614;DHT22;7393;51.446;6.800;2023-03-03T05:47:22;1.90;1.00
14614;DHT22;7393;51.446;6.800;2023-03-03T05:49:48;1.90;1.00
14614;DHT22;7393;51.446;6.800;2023-03-03T05:52:17;1.90;99.90
14614;DHT22;7393;51.446;6.800;2023-03-03T05:54:43;1.90;99.90
14614;DHT22;7393;51.446;6.800;2023-03-03T05:57:10;1.90;1.00
14614;DHT22;7393;51.446;6.800;2023-03-03T05:59:37;1.90;1.00
14614;DHT22;7393;51.446;6.800;2023-03-03T06:02:04;1.90;1.00
14614;DHT22;7393;51.446;6.800;2023-03-03T06:04:31;1.90;1.00
14614;DHT22;7393;51.446;6.800;2023-03-03T06:06:57;1.90;1.00
14614;DHT22;7393;51.446;6.800;2023-03-03T06:09:26;1.90;1.00
14614;DHT22;7393;51.446;6.800;2023-03-03T06:11:52;2.00;1.00
14614;DHT22;7393;51.446;6.800;2023-03-03T06:14:19;2.00;1.00
14614;DHT22;7393;51.446;6.800;2023-03-03T06:16:46;2.00;99.90
14614;DHT22;7393;51.446;6.800;2023-03-03T06:19:13;2.00;99.90
14614;DHT22;7393;51.446;6.800;2023-03-03T06:21:40;2.10;29.00
14614;DHT22;7393;51.446;6.800;2023-03-03T06:24:07;2.10;99.90
14614;DHT22;7393;51.446;6.800;2023-03-03T06:26:36;2.10;99.90
14614;DHT22;7393;51.446;6.800;2023-03-03T06:29:02;2.10;1.00
14614;DHT22;7393;51.446;6.800;2023-03-03T06:31:29;2.20;99.90
14614;DHT22;7393;51.446;6.800;2023-03-03T06:33:56;2.20;49.50
14614;DHT22;7393;51.446;6.800;2023-03-03T06:36:23;2.20;1.00
14614;DHT22;7393;51.446;6.800;2023-03-03T06:38:50;2.20;11.60
14614;DHT22;7393;51.446;6.800;2023-03-03T06:41:17;2.20;51.10
14614;DHT22;7393;51.446;6.800;2023-03-03T06:43:45;2.20;99.90
14614;DHT22;7393;51.446;6.800;2023-03-03T06:46:12;2.20;1.00
14614;DHT22;7393;51.446;6.800;2023-03-03T06:48:39;2.20;1.00
14614;DHT22;7393;51.446;6.800;2023-03-03T06:51:22;2.20;1.00
14614;DHT22;7393;51.446;6.800;2023-03-03T06:53:53;2.10;1.00
14614;DHT22;7393;51.446;6.800;2023-03-03T06:56:21;2.10;99.90
14614;DHT22;7393;51.446;6.800;2023-03-03T06:58:53;2.10;1.00
14614;DHT22;7393;51.446;6.800;2023-03-03T07:01:19;2.10;99.90
14614;DHT22;7393;51.446;6.800;2023-03-03T07:03:46;2.20;56.00
14614;DHT22;7393;51.446;6.800;2023-03-03T07:06:20;2.20;1.00
14614;DHT22;7393;51.446;6.800;2023-03-03T07:08:48;2.20;90.20
14614;DHT22;7393;51.446;6.800;2023-03-03T07:11:17;2.20;75.30
14614;DHT22;7393;51.446;6.800;2023-03-03T07:13:46;2.20;99.90
14614;DHT22;7393;51.446;6.800;2023-03-03T07:16:16;2.20;1.00
14614;DHT22;7393;51.446;6.800;2023-03-03T07:18:48;2.30;1.00
14614;DHT22;7393;51.446;6.800;2023-03-03T07:21:17;2.30;99.90
14614;DHT22;7393;51.446;6.800;2023-03-03T07:23:45;2.30;96.20
14614;DHT22;7393;51.446;6.800;2023-03-03T07:26:14;2.30;21.30
14614;DHT22;7393;51.446;6.800;2023-03-03T07:28:42;2.30;12.80
14614;DHT22;7393;51.446;6.800;2023-03-03T07:31:30;2.20;99.90
14614;DHT22;7393;51.446;6.800;2023-03-03T07:33:59;2.20;99.90
14614;DHT22;7393;51.446;6.800;2023-03-03T07:36:28;2.20;1.00
14614;DHT22;7393;51.446;6.800;2023-03-03T07:38:58;2.20;1.00
14614;DHT22;7393;51.446;6.800;2023-03-03T07:41:26;2.20;1.00
14614;DHT22;7393;51.446;6.800;2023-03-03T07:43:55;2.30;99.90
14614;DHT22;7393;51.446;6.800;2023-03-03T07:46:33;2.30;99.90
14614;DHT22;7393;51.446;6.800;2023-03-03T07:49:14;2.30;43.60
14614;DHT22;7393;51.446;6.800;2023-03-03T07:51:46;2.30;1.00
14614;DHT22;7393;51.446;6.800;2023-03-03T07:54:29;2.40;1.00
14614;DHT22;7393;51.446;6.800;2023-03-03T07:56:58;2.40;1.00
14614;DHT22;7393;51.446;6.800;2023-03-03T07:59:27;2.40;1.00
14614;DHT22;7393;51.446;6.800;2023-03-03T08:01:56;2.40;1.00
14614;DHT22;7393;51.446;6.800;2023-03-03T08:04:29;2.40;1.00
14614;DHT22;7393;51.446;6.800;2023-03-03T08:07:01;2.40;1.00
14614;DHT22;7393;51.446;6.800;2023-03-03T08:09:55;2.50;1.00
14614;DHT22;7393;51.446;6.800;2023-03-03T08:12:36;2.50;99.90
14614;DHT22;7393;51.446;6.800;2023-03-03T08:15:20;2.50;1.00
14614;DHT22;7393;51.446;6.800;2023-03-03T08:17:50;2.50;1.00
14614;DHT22;7393;51.446;6.800;2023-03-03T08:20:41;2.50;1.00
14614;DHT22;7393;51.446;6.800;2023-03-03T08:23:09;2.50;1.00
14614;DHT22;7393;51.446;6.800;2023-03-03T08:25:36;2.50;1.00
14614;DHT22;7393;51.446;6.800;2023-03-03T08:28:03;2.50;1.00
14614;DHT22;7393;51.446;6.800;2023-03-03T08:30:29;2.60;99.90
14614;DHT22;7393;51.446;6.800;2023-03-03T08:32:58;2.60;99.90
14614;DHT22;7393;51.446;6.800;2023-03-03T08:35:25;2.60;99.90
14614;DHT22;7393;51.446;6.800;2023-03-03T08:37:52;2.60;99.90
14614;DHT22;7393;51.446;6.800;2023-03-03T08:40:19;2.70;99.90
14614;DHT22;7393;51.446;6.800;2023-03-03T08:42:46;2.70;99.90
14614;DHT22;7393;51.446;6.800;2023-03-03T08:45:13;2.70;99.90
14614;DHT22;7393;51.446;6.800;2023-03-03T08:47:40;2.70;99.90
14614;DHT22;7393;51.446;6.800;2023-03-03T08:50:09;2.70;99.90
14614;DHT22;7393;51.446;6.800;2023-03-03T08:52:36;2.80;99.90
14614;DHT22;7393;51.446;6.800;2023-03-03T08:55:03;2.70;99.90
14614;DHT22;7393;51.446;6.800;2023-03-03T08:57:30;2.70;99.90
14614;DHT22;7393;51.446;6.800;2023-03-03T08:59:56;2.70;99.90
14614;DHT22;7393;51.446;6.800;2023-03-03T09:02:23;2.80;54.70
14614;DHT22;7393;51.446;6.800;2023-03-03T09:04:50;2.80;47.70
14614;DHT22;7393;51.446;6.800;2023-03-03T09:07:18;2.70;45.90
14614;DHT22;7393;51.446;6.800;2023-03-03T09:09:45;2.80;99.90
14614;DHT22;7393;51.446;6.800;2023-03-03T09:12:15;2.80;21.70
14614;DHT22;7393;51.446;6.800;2023-03-03T09:14:42;2.90;1.00
14614;DHT22;7393;51.446;6.800;2023-03-03T09:17:22;2.90;1.00
14614;DHT22;7393;51.446;6.800;2023-03-03T09:19:50;2.90;1.00
14614;DHT22;7393;51.446;6.800;2023-03-03T09:22:20;2.90;1.00
14614;DHT22;7393;51.446;6.800;2023-03-03T09:24:49;2.90;1.00
14614;DHT22;7393;51.446;6.800;2023-03-03T09:27:20;2.90;68.60
14614;DHT22;7393;51.446;6.800;2023-03-03T09:29:48;2.90;7.10
14614;DHT22;7393;51.446;6.800;2023-03-03T09:32:30;2.90;1.00
14614;DHT22;7393;51.446;6.800;2023-03-03T09:35:00;2.90;1.00
14614;DHT22;7393;51.446;6.800;2023-03-03T09:37:34;3.00;1.00
14614;DHT22;7393;51.446;6.800;2023-03-03T09:40:25;3.00;1.00
14614;DHT22;7393;51.446;6.800;2023-03-03T09:43:01;3.00;1.00
14614;DHT22;7393;51.446;6.800;2023-03-03T09:45:53;3.10;1.00
14614;DHT22;7393;51.446;6.800;2023-03-03T09:48:50;3.10;1.00
14614;DHT22;7393;51.446;6.800;2023-03-03T09:51:36;3.10;1.00
14614;DHT22;7393;51.446;6.800;2023-03-03T09:54:19;3.20;99.90
14614;DHT22;7393;51.446;6.800;2023-03-03T09:56:51;3.20;99.90
14614;DHT22;7393;51.446;6.800;2023-03-03T09:59:29;3.10;99.90
14614;DHT22;7393;51.446;6.800;2023-03-03T10:08:06;3.20;99.90
14614;DHT22;7393;51.446;6.800;2023-03-03T10:10:47;3.20;99.90
14614;DHT22;7393;51.446;6.800;2023-03-03T10:13:24;3.20;1.00
14614;DHT22;7393;51.446;6.800;2023-03-03T10:16:06;3.20;99.90
14614;DHT22;7393;51.446;6.800;2023-03-03T10:18:41;3.20;1.00
14614;DHT22;7393;51.446;6.800;2023-03-03T10:21:18;3.20;1.00
14614;DHT22;7393;51.446;6.800;2023-03-03T10:23:54;3.30;1.00
14614;DHT22;7393;51.446;6.800;2023-03-03T10:26:36;3.40;99.90
14614;DHT22;7393;51.446;6.800;2023-03-03T10:29:13;3.30;99.90
14614;DHT22;7393;51.446;6.800;2023-03-03T10:31:54;3.40;99.90
14614;DHT22;7393;51.446;6.800;2023-03-03T10:34:42;3.40;1.00
14614;DHT22;7393;51.446;6.800;2023-03-03T10:37:17;3.40;99.90
14614;DHT22;7393;51.446;6.800;2023-03-03T10:39:59;3.40;99.90
14614;DHT22;7393;51.446;6.800;2023-03-03T10:42:53;3.50;99.90
14614;DHT22;7393;51.446;6.800;2023-03-03T10:45:34;3.50;1.00
14614;DHT22;7393;51.446;6.800;2023-03-03T10:48:17;3.60;1.00
14614;DHT22;7393;51.446;6.800;2023-03-03T10:50:53;3.60;65.50
14614;DHT22;7393;51.446;6.800;2023-03-03T10:53:30;3.60;1.00
14614;DHT22;7393;51.446;6.800;2023-03-03T10:56:11;3.60;24.70
14614;DHT22;7393;51.446;6.800;2023-03-03T10:58:47;3.70;1.00
14614;DHT22;7393;51.446;6.800;2023-03-03T11:01:23;3.70;38.80
14614;DHT22;7393;51.446;6.800;2023-03-03T11:04:11;3.80;1.00
14614;DHT22;7393;51.446;6.800;2023-03-03T11:06:46;3.80;1.00
14614;DHT22;7393;51.446;6.800;2023-03-03T11:09:27;3.80;84.00
14614;DHT22;7393;51.446;6.800;2023-03-03T11:12:00;3.70;99.90
14614;DHT22;7393;51.446;6.800;2023-03-03T11:14:35;3.70;99.90
14614;DHT22;7393;51.446;6.800;2023-03-03T11:17:12;3.80;99.90
14614;DHT22;7393;51.446;6.800;2023-03-03T11:19:54;3.70;99.90
14614;DHT22;7393;51.446;6.800;2023-03-03T11:22:32;3.70;99.90
14614;DHT22;7393;51.446;6.800;2023-03-03T11:25:22;3.70;1.00
14614;DHT22;7393;51.446;6.800;2023-03-03T11:28:04;3.70;1.00
14614;DHT22;7393;51.446;6.800;2023-03-03T11:30:42;3.70;99.90
14614;DHT22;7393;51.446;6.800;2023-03-03T11:33:15;3.80;99.90
14614;DHT22;7393;51.446;6.800;2023-03-03T11:35:50;3.80;99.90
14614;DHT22;7393;51.446;6.800;2023-03-03T11:38:47;3.80;99.90
14614;DHT22;7393;51.446;6.800;2023-03-03T11:41:25;3.80;1.00
14614;DHT22;7393;51.446;6.800;2023-03-03T11:43:57;3.80;12.20
14614;DHT22;7393;51.446;6.800;2023-03-03T11:46:31;3.80;99.90
14614;DHT22;7393;51.446;6.800;2023-03-03T11:49:02;3.80;99.90
14614;DHT22;7393;51.446;6.800;2023-03-03T11:51:37;3.90;77.80
14614;DHT22;7393;51.446;6.800;2023-03-03T11:54:11;3.90;1.00
14614;DHT22;7393;51.446;6.800;2023-03-03T11:56:42;4.00;1.00
14614;DHT22;7393;51.446;6.800;2023-03-03T11:59:31;4.00;1.00
14614;DHT22;7393;51.446;6.800;2023-03-03T12:02:16;4.00;1.00
14614;DHT22;7393;51.446;6.800;2023-03-03T12:04:49;4.10;1.00
14614;DHT22;7393;51.446;6.800;2023-03-03T12:07:27;4.10;1.00
14614;DHT22;7393;51.446;6.800;2023-03-03T12:10:04;4.10;1.00
14614;DHT22;7393;51.446;6.800;2023-03-03T12:12:37;4.10;1.00
14614;DHT22;7393;51.446;6.800;2023-03-03T12:15:16;4.10;1.00
14614;DHT22;7393;51.446;6.800;2023-03-03T12:17:57;4.10;1.00
14614;DHT22;7393;51.446;6.800;2023-03-03T12:20:31;4.20;1.00
14614;DHT22;7393;51.446;6.800;2023-03-03T12:23:16;4.10;1.00
14614;DHT22;7393;51.446;6.800;2023-03-03T12:25:47;4.20;1.00
14614;DHT22;7393;51.446;6.800;2023-03-03T12:28:19;4.20;1.00
14614;DHT22;7393;51.446;6.800;2023-03-03T12:31:05;4.30;1.00
14614;DHT22;7393;51.446;6.800;2023-03-03T12:33:49;4.40;1.00
14614;DHT22;7393;51.446;6.800;2023-03-03T12:36:35;4.50;1.00
14614;DHT22;7393;51.446;6.800;2023-03-03T12:39:09;4.60;99.90
14614;DHT22;7393;51.446;6.800;2023-03-03T12:41:42;4.60;99.90
14614;DHT22;7393;51.446;6.800;2023-03-03T12:44:16;4.70;99.90
14614;DHT22;7393;51.446;6.800;2023-03-03T12:46:45;4.70;99.90
14614;DHT22;7393;51.446;6.800;2023-03-03T12:49:19;4.80;90.70
14614;DHT22;7393;51.446;6.800;2023-03-03T12:51:54;4.90;1.00
14614;DHT22;7393;51.446;6.800;2023-03-03T12:54:47;4.90;1.00
14614;DHT22;7393;51.446;6.800;2023-03-03T12:57:23;5.00;1.00
14614;DHT22;7393;51.446;6.800;2023-03-03T13:00:02;5.10;1.00
14614;DHT22;7393;51.446;6.800;2023-03-03T13:02:46;5.20;1.00
14614;DHT22;7393;51.446;6.800;2023-03-03T13:05:21;5.20;1.00
14614;DHT22;7393;51.446;6.800;2023-03-03T13:07:59;5.40;1.00
14614;DHT22;7393;51.446;6.800;2023-03-03T13:10:36;5.20;1.00
14614;DHT22;7393;51.446;6.800;2023-03-03T13:13:09;5.20;1.00
14614;DHT22;7393;51.446;6.800;2023-03-03T13:15:42;5.20;1.00
14614;DHT22;7393;51.446;6.800;2023-03-03T13:18:23;5.30;1.00
14614;DHT22;7393;51.446;6.800;2023-03-03T13:20:57;5.30;1.00
14614;DHT22;7393;51.446;6.800;2023-03-03T13:23:46;5.30;1.00
14614;DHT22;7393;51.446;6.800;2023-03-03T13:26:19;5.40;1.00
14614;DHT22;7393;51.446;6.800;2023-03-03T13:29:02;5.50;1.00
14614;DHT22;7393;51.446;6.800;2023-03-03T13:31:33;5.50;1.00
14614;DHT22;7393;51.446;6.800;2023-03-03T13:34:01;5.60;1.00
14614;DHT22;7393;51.446;6.800;2023-03-03T13:36:35;5.70;1.00
14614;DHT22;7393;51.446;6.800;2023-03-03T13:39:13;5.80;1.00
14614;DHT22;7393;51.446;6.800;2023-03-03T13:41:45;6.00;1.00
14614;DHT22;7393;51.446;6.800;2023-03-03T13:44:19;6.20;1.00
14614;DHT22;7393;51.446;6.800;2023-03-03T13:46:58;6.40;1.00
14614;DHT22;7393;51.446;6.800;2023-03-03T13:49:34;6.60;1.00
14614;DHT22;7393;51.446;6.800;2023-03-03T13:52:07;6.80;1.00
14614;DHT22;7393;51.446;6.800;2023-03-03T13:54:46;7.00;99.90
14614;DHT22;7393;51.446;6.800;2023-03-03T13:57:26;7.20;99.90
14614;DHT22;7393;51.446;6.800;2023-03-03T14:00:06;7.30;99.90
14614;DHT22;7393;51.446;6.800;2023-03-03T14:02:49;7.50;99.90
14614;DHT22;7393;51.446;6.800;2023-03-03T14:05:25;7.70;99.90
14614;DHT22;7393;51.446;6.800;2023-03-03T14:07:58;7.90;99.90
14614;DHT22;7393;51.446;6.800;2023-03-03T14:10:29;8.00;99.90
14614;DHT22;7393;51.446;6.800;2023-03-03T14:13:02;8.10;99.90
14614;DHT22;7393;51.446;6.800;2023-03-03T14:15:32;8.20;99.90
14614;DHT22;7393;51.446;6.800;2023-03-03T14:18:17;8.40;99.90
14614;DHT22;7393;51.446;6.800;2023-03-03T14:20:48;8.40;99.90
14614;DHT22;7393;51.446;6.800;2023-03-03T14:23:19;8.50;99.90
14614;DHT22;7393;51.446;6.800;2023-03-03T14:25:55;8.50;99.90
14614;DHT22;7393;51.446;6.800;2023-03-03T14:28:24;8.60;99.90
14614;DHT22;7393;51.446;6.800;2023-03-03T14:30:54;8.60;99.90
14614;DHT22;7393;51.446;6.800;2023-03-03T14:33:25;8.60;99.90
14614;DHT22;7393;51.446;6.800;2023-03-03T14:36:11;8.60;99.90
14614;DHT22;7393;51.446;6.800;2023-03-03T14:38:46;8.60;99.90
14614;DHT22;7393;51.446;6.800;2023-03-03T14:41:19;8.60;99.90
14614;DHT22;7393;51.446;6.800;2023-03-03T14:43:57;8.60;99.90
14614;DHT22;7393;51.446;6.800;2023-03-03T14:46:42;8.60;99.90
14614;DHT22;7393;51.446;6.800;2023-03-03T14:49:14;8.60;99.90
14614;DHT22;7393;51.446;6.800;2023-03-03T14:51:43;8.60;99.90
14614;DHT22;7393;51.446;6.800;2023-03-03T14:54:20;8.50;99.90
14614;DHT22;7393;51.446;6.800;2023-03-03T14:56:59;8.50;99.90
14614;DHT22;7393;51.446;6.800;2023-03-03T14:59:27;8.50;99.90
14614;DHT22;7393;51.446;6.800;2023-03-03T15:04:39;8.50;99.90
14614;DHT22;7393;51.446;6.800;2023-03-03T15:07:19;8.30;98.40
14614;DHT22;7393;51.446;6.800;2023-03-03T15:09:54;8.30;99.90
14614;DHT22;7393;51.446;6.800;2023-03-03T15:12:22;8.30;99.90
14614;DHT22;7393;51.446;6.800;2023-03-03T15:14:51;8.30;99.90
14614;DHT22;7393;51.446;6.800;2023-03-03T15:17:29;8.20;99.90
14614;DHT22;7393;51.446;6.800;2023-03-03T15:20:17;8.10;98.10
14614;DHT22;7393;51.446;6.800;2023-03-03T15:22:49;8.10;99.90
14614;DHT22;7393;51.446;6.800;2023-03-03T15:25:23;8.30;96.80
14614;DHT22;7393;51.446;6.800;2023-03-03T15:27:57;8.30;99.90
14614;DHT22;7393;51.446;6.800;2023-03-03T15:30:34;8.20;99.40
14614;DHT22;7393;51.446;6.800;2023-03-03T15:33:08;8.20;99.90
14614;DHT22;7393;51.446;6.800;2023-03-03T15:35:46;8.20;99.90
14614;DHT22;7393;51.446;6.800;2023-03-03T15:38:22;8.20;97.60
14614;DHT22;7393;51.446;6.800;2023-03-03T15:40:59;8.20;98.60
14614;DHT22;7393;51.446;6.800;2023-03-03T15:43:35;8.20;95.70
14614;DHT22;7393;51.446;6.800;2023-03-03T15:46:14;8.20;96.90
14614;DHT22;7393;51.446;6.800;2023-03-03T15:48:52;8.20;95.70
14614;DHT22;7393;51.446;6.800;2023-03-03T15:51:36;8.10;96.30
14614;DHT22;7393;51.446;6.800;2023-03-03T15:54:18;8.00;95.00
14614;DHT22;7393;51.446;6.800;2023-03-03T15:56:52;8.00;97.60
14614;DHT22;7393;51.446;6.800;2023-03-03T15:59:32;8.00;95.60
14614;DHT22;7393;51.446;6.800;2023-03-03T16:02:14;7.90;95.30
14614;DHT22;7393;51.446;6.800;2023-03-03T16:04:55;7.90;97.50
14614;DHT22;7393;51.446;6.800;2023-03-03T16:07:36;7.90;96.60
14614;DHT22;7393;51.446;6.800;2023-03-03T16:10:17;8.00;96.60
14614;DHT22;7393;51.446;6.800;2023-03-03T16:12:57;8.00;95.30
14614;DHT22;7393;51.446;6.800;2023-03-03T16:15:40;7.90;97.50
14614;DHT22;7393;51.446;6.800;2023-03-03T16:18:17;7.70;96.20
14614;DHT22;7393;51.446;6.800;2023-03-03T16:20:55;7.70;97.20
14614;DHT22;7393;51.446;6.800;2023-03-03T16:23:30;7.60;97.70
14614;DHT22;7393;51.446;6.800;2023-03-03T16:26:08;7.60;98.70
14614;DHT22;7393;51.446;6.800;2023-03-03T16:28:49;7.60;98.80
14614;DHT22;7393;51.446;6.800;2023-03-03T16:31:21;7.50;99.90
14614;DHT22;7393;51.446;6.800;2023-03-03T16:33:52;7.50;99.90
14614;DHT22;7393;51.446;6.800;2023-03-03T16:36:29;7.40;99.90
14614;DHT22;7393;51.446;6.800;2023-03-03T16:39:02;7.40;99.90
14614;DHT22;7393;51.446;6.800;2023-03-03T16:41:38;7.30;99.90
14614;DHT22;7393;51.446;6.800;2023-03-03T16:44:21;7.20;99.90
14614;DHT22;7393;51.446;6.800;2023-03-03T16:46:53;7.30;99.90
14614;DHT22;7393;51.446;6.800;2023-03-03T16:49:26;7.20;99.90
14614;DHT22;7393;51.446;6.800;2023-03-03T16:52:02;7.10;99.90
14614;DHT22;7393;51.446;6.800;2023-03-03T16:54:35;7.00;99.90
14614;DHT22;7393;51.446;6.800;2023-03-03T16:57:10;7.00;99.90